sensor_id;sensor_type;location;lat;lon;timestamp;P1;durP1;ratioP1;P2;durP2;ratioP2
49614;SDS011;35517;45.272;9.984;2023-04-03T00:01:12;8.40;;;3.63;;
49614;SDS011;35517;45.272;9.984;2023-04-03T00:03:38;4.78;;;3.30;;
49614;SDS011;35517;45.272;9.984;2023-04-03T00:06:06;8.88;;;4.15;;
49614;SDS011;35517;45.272;9.984;2023-04-03T00:08:34;6.90;;;3.80;;
49614;SDS011;35517;45.272;9.984;2023-04-03T00:11:01;7.95;;;3.83;;
49614;SDS011;35517;45.272;9.984;2023-04-03T00:13:28;12.25;;;4.15;;
49614;SDS011;35517;45.272;9.984;2023-04-03T00:15:54;7.15;;;4.28;;
49614;SDS011;35517;45.272;9.984;2023-04-03T00:18:21;5.00;;;3.78;;
49614;SDS011;35517;45.272;9.984;2023-04-03T00:20:47;5.10;;;4.05;;
49614;SDS011;35517;45.272;9.984;2023-04-03T00:23:14;7.60;;;4.07;;
49614;SDS011;35517;45.272;9.984;2023-04-03T00:25:40;5.22;;;3.22;;
49614;SDS011;35517;45.272;9.984;2023-04-03T00:28:07;6.60;;;4.05;;
49614;SDS011;35517;45.272;9.984;2023-04-03T00:30:35;7.28;;;4.35;;
49614;SDS011;35517;45.272;9.984;2023-04-03T00:33:01;12.68;;;4.57;;
49614;SDS011;35517;45.272;9.984;2023-04-03T00:35:28;9.70;;;6.25;;
49614;SDS011;35517;45.272;9.984;2023-04-03T00:37:55;6.70;;;5.18;;
49614;SDS011;35517;45.272;9.984;2023-04-03T00:40:23;5.20;;;4.07;;
49614;SDS011;35517;45.272;9.984;2023-04-03T00:42:51;4.90;;;3.90;;
49614;SDS011;35517;45.272;9.984;2023-04-03T00:47:54;5.10;;;4.18;;
49614;SDS011;35517;45.272;9.984;2023-04-03T00:50:21;9.23;;;4.65;;
49614;SDS011;35517;45.272;9.984;2023-04-03T00:52:47;5.43;;;4.20;;
49614;SDS011;35517;45.272;9.984;2023-04-03T00:55:14;5.85;;;4.45;;
49614;SDS011;35517;45.272;9.984;2023-04-03T00:57:41;12.00;;;4.78;;
49614;SDS011;35517;45.272;9.984;2023-04-03T01:00:10;9.52;;;5.95;;
49614;SDS011;35517;45.272;9.984;2023-04-03T01:02:38;7.82;;;4.97;;
49614;SDS011;35517;45.272;9.984;2023-04-03T01:05:07;9.32;;;5.50;;
49614;SDS011;35517;45.272;9.984;2023-04-03T01:07:34;9.45;;;5.25;;
49614;SDS011;35517;45.272;9.984;2023-04-03T01:10:09;7.30;;;4.43;;
49614;SDS011;35517;45.272;9.984;2023-04-03T01:12:38;8.70;;;5.00;;
49614;SDS011;35517;45.272;9.984;2023-04-03T01:15:12;5.97;;;5.22;;
49614;SDS011;35517;45.272;9.984;2023-04-03T01:17:40;10.82;;;5.97;;
49614;SDS011;35517;45.272;9.984;2023-04-03T01:25:18;9.45;;;5.53;;
49614;SDS011;35517;45.272;9.984;2023-04-03T01:27:45;7.85;;;5.45;;
49614;SDS011;35517;45.272;9.984;2023-04-03T01:30:11;6.72;;;5.82;;
49614;SDS011;35517;45.272;9.984;2023-04-03T01:32:39;7.95;;;4.53;;
49614;SDS011;35517;45.272;9.984;2023-04-03T01:35:07;7.55;;;5.05;;
49614;SDS011;35517;45.272;9.984;2023-04-03T01:37:34;8.80;;;5.40;;
49614;SDS011;35517;45.272;9.984;2023-04-03T01:40:01;8.93;;;4.70;;
49614;SDS011;35517;45.272;9.984;2023-04-03T01:42:27;7.45;;;4.32;;
49614;SDS011;35517;45.272;9.984;2023-04-03T01:44:55;5.85;;;4.40;;
49614;SDS011;35517;45.272;9.984;2023-04-03T01:47:22;11.20;;;5.28;;
49614;SDS011;35517;45.272;9.984;2023-04-03T01:49:49;8.05;;;5.38;;
49614;SDS011;35517;45.272;9.984;2023-04-03T01:52:16;12.70;;;5.80;;
49614;SDS011;35517;45.272;9.984;2023-04-03T01:54:42;29.85;;;18.05;;
49614;SDS011;35517;45.272;9.984;2023-04-03T01:57:09;15.85;;;7.50;;
49614;SDS011;35517;45.272;9.984;2023-04-03T01:59:36;8.82;;;5.35;;
49614;SDS011;35517;45.272;9.984;2023-04-03T02:02:02;8.27;;;5.10;;
49614;SDS011;35517;45.272;9.984;2023-04-03T02:04:29;9.35;;;5.45;;
49614;SDS011;35517;45.272;9.984;2023-04-03T02:06:55;8.00;;;5.30;;
49614;SDS011;35517;45.272;9.984;2023-04-03T02:09:22;9.82;;;5.20;;
49614;SDS011;35517;45.272;9.984;2023-04-03T02:11:50;7.13;;;5.03;;
49614;SDS011;35517;45.272;9.984;2023-04-03T02:14:16;10.27;;;4.95;;
49614;SDS011;35517;45.272;9.984;2023-04-03T02:16:43;8.27;;;5.63;;
49614;SDS011;35517;45.272;9.984;2023-04-03T02:19:10;9.50;;;5.47;;
49614;SDS011;35517;45.272;9.984;2023-04-03T02:21:36;9.80;;;6.07;;
49614;SDS011;35517;45.272;9.984;2023-04-03T02:24:03;7.72;;;5.15;;
49614;SDS011;35517;45.272;9.984;2023-04-03T02:26:29;7.90;;;6.00;;
49614;SDS011;35517;45.272;9.984;2023-04-03T02:28:56;8.40;;;5.55;;
49614;SDS011;35517;45.272;9.984;2023-04-03T02:31:22;17.30;;;5.60;;
49614;SDS011;35517;45.272;9.984;2023-04-03T02:33:50;24.75;;;7.95;;
49614;SDS011;35517;45.272;9.984;2023-04-03T02:36:17;14.85;;;6.70;;
49614;SDS011;35517;45.272;9.984;2023-04-03T02:38:50;14.52;;;6.05;;
49614;SDS011;35517;45.272;9.984;2023-04-03T02:41:17;22.98;;;7.90;;
49614;SDS011;35517;45.272;9.984;2023-04-03T02:43:44;27.65;;;6.28;;
49614;SDS011;35517;45.272;9.984;2023-04-03T02:46:10;22.17;;;6.55;;
49614;SDS011;35517;45.272;9.984;2023-04-03T02:48:39;15.90;;;5.55;;
49614;SDS011;35517;45.272;9.984;2023-04-03T02:51:06;9.73;;;5.60;;
49614;SDS011;35517;45.272;9.984;2023-04-03T02:53:33;11.10;;;5.97;;
49614;SDS011;35517;45.272;9.984;2023-04-03T02:56:06;12.45;;;5.60;;
49614;SDS011;35517;45.272;9.984;2023-04-03T02:58:33;13.68;;;5.72;;
49614;SDS011;35517;45.272;9.984;2023-04-03T03:01:00;13.55;;;6.18;;
49614;SDS011;35517;45.272;9.984;2023-04-03T03:03:27;14.90;;;6.63;;
49614;SDS011;35517;45.272;9.984;2023-04-03T03:06:14;10.50;;;5.57;;
49614;SDS011;35517;45.272;9.984;2023-04-03T03:08:41;13.02;;;5.85;;
49614;SDS011;35517;45.272;9.984;2023-04-03T03:11:08;11.55;;;6.03;;
49614;SDS011;35517;45.272;9.984;2023-04-03T03:13:35;11.20;;;6.65;;
49614;SDS011;35517;45.272;9.984;2023-04-03T03:16:02;8.35;;;5.47;;
49614;SDS011;35517;45.272;9.984;2023-04-03T03:18:31;11.45;;;5.45;;
49614;SDS011;35517;45.272;9.984;2023-04-03T03:20:59;9.32;;;6.43;;
49614;SDS011;35517;45.272;9.984;2023-04-03T03:23:26;12.52;;;6.65;;
49614;SDS011;35517;45.272;9.984;2023-04-03T03:25:57;12.57;;;5.78;;
49614;SDS011;35517;45.272;9.984;2023-04-03T03:28:24;11.63;;;6.72;;
49614;SDS011;35517;45.272;9.984;2023-04-03T03:30:50;13.48;;;6.93;;
49614;SDS011;35517;45.272;9.984;2023-04-03T03:33:18;12.45;;;6.53;;
49614;SDS011;35517;45.272;9.984;2023-04-03T03:35:44;14.07;;;6.03;;
49614;SDS011;35517;45.272;9.984;2023-04-03T03:38:11;10.45;;;6.70;;
49614;SDS011;35517;45.272;9.984;2023-04-03T03:40:38;17.92;;;6.72;;
49614;SDS011;35517;45.272;9.984;2023-04-03T03:43:05;11.65;;;6.60;;
49614;SDS011;35517;45.272;9.984;2023-04-03T03:45:31;9.55;;;6.93;;
49614;SDS011;35517;45.272;9.984;2023-04-03T03:47:58;9.90;;;6.85;;
49614;SDS011;35517;45.272;9.984;2023-04-03T03:50:24;8.13;;;5.93;;
49614;SDS011;35517;45.272;9.984;2023-04-03T03:52:51;8.55;;;5.75;;
49614;SDS011;35517;45.272;9.984;2023-04-03T03:55:18;10.55;;;5.30;;
49614;SDS011;35517;45.272;9.984;2023-04-03T03:57:49;7.80;;;5.45;;
49614;SDS011;35517;45.272;9.984;2023-04-03T04:00:16;11.48;;;5.82;;
49614;SDS011;35517;45.272;9.984;2023-04-03T04:02:48;13.73;;;5.95;;
49614;SDS011;35517;45.272;9.984;2023-04-03T04:05:18;15.57;;;7.07;;
49614;SDS011;35517;45.272;9.984;2023-04-03T04:07:45;9.45;;;5.85;;
49614;SDS011;35517;45.272;9.984;2023-04-03T04:10:12;8.52;;;5.32;;
49614;SDS011;35517;45.272;9.984;2023-04-03T04:12:40;10.20;;;5.78;;
49614;SDS011;35517;45.272;9.984;2023-04-03T04:15:07;7.68;;;5.78;;
49614;SDS011;35517;45.272;9.984;2023-04-03T04:17:33;8.95;;;5.53;;
49614;SDS011;35517;45.272;9.984;2023-04-03T04:20:02;12.30;;;6.05;;
49614;SDS011;35517;45.272;9.984;2023-04-03T04:22:30;12.73;;;5.90;;
49614;SDS011;35517;45.272;9.984;2023-04-03T04:24:57;15.73;;;7.15;;
49614;SDS011;35517;45.272;9.984;2023-04-03T04:27:24;8.23;;;6.10;;
49614;SDS011;35517;45.272;9.984;2023-04-03T04:29:50;16.63;;;7.25;;
49614;SDS011;35517;45.272;9.984;2023-04-03T04:32:19;11.70;;;7.50;;
49614;SDS011;35517;45.272;9.984;2023-04-03T04:34:46;11.35;;;7.78;;
49614;SDS011;35517;45.272;9.984;2023-04-03T04:37:12;12.45;;;7.45;;
49614;SDS011;35517;45.272;9.984;2023-04-03T04:39:39;10.32;;;7.03;;
49614;SDS011;35517;45.272;9.984;2023-04-03T04:42:06;16.35;;;7.38;;
49614;SDS011;35517;45.272;9.984;2023-04-03T04:44:39;10.00;;;7.07;;
49614;SDS011;35517;45.272;9.984;2023-04-03T04:47:06;14.35;;;8.00;;
49614;SDS011;35517;45.272;9.984;2023-04-03T04:49:32;11.05;;;7.15;;
49614;SDS011;35517;45.272;9.984;2023-04-03T04:52:07;11.95;;;6.95;;
49614;SDS011;35517;45.272;9.984;2023-04-03T04:54:39;13.65;;;7.00;;
49614;SDS011;35517;45.272;9.984;2023-04-03T04:57:06;15.98;;;7.40;;
49614;SDS011;35517;45.272;9.984;2023-04-03T04:59:33;10.95;;;7.07;;
49614;SDS011;35517;45.272;9.984;2023-04-03T05:02:00;10.05;;;6.00;;
49614;SDS011;35517;45.272;9.984;2023-04-03T05:04:27;14.13;;;8.07;;
49614;SDS011;35517;45.272;9.984;2023-04-03T05:09:29;11.85;;;7.85;;
49614;SDS011;35517;45.272;9.984;2023-04-03T05:11:55;9.40;;;6.60;;
49614;SDS011;35517;45.272;9.984;2023-04-03T05:14:25;11.10;;;5.90;;
49614;SDS011;35517;45.272;9.984;2023-04-03T05:16:53;11.20;;;6.30;;
49614;SDS011;35517;45.272;9.984;2023-04-03T05:19:22;11.82;;;6.28;;
49614;SDS011;35517;45.272;9.984;2023-04-03T05:21:50;12.60;;;6.80;;
49614;SDS011;35517;45.272;9.984;2023-04-03T05:24:17;13.40;;;6.85;;
49614;SDS011;35517;45.272;9.984;2023-04-03T05:26:44;11.57;;;6.95;;
49614;SDS011;35517;45.272;9.984;2023-04-03T05:29:11;16.13;;;6.47;;
49614;SDS011;35517;45.272;9.984;2023-04-03T05:31:38;12.52;;;6.55;;
49614;SDS011;35517;45.272;9.984;2023-04-03T05:34:07;9.15;;;5.78;;
49614;SDS011;35517;45.272;9.984;2023-04-03T05:36:37;13.60;;;6.63;;
49614;SDS011;35517;45.272;9.984;2023-04-03T05:39:07;11.27;;;6.68;;
49614;SDS011;35517;45.272;9.984;2023-04-03T05:41:36;12.95;;;6.88;;
49614;SDS011;35517;45.272;9.984;2023-04-03T05:44:03;9.43;;;6.25;;
49614;SDS011;35517;45.272;9.984;2023-04-03T05:46:30;11.27;;;6.55;;
49614;SDS011;35517;45.272;9.984;2023-04-03T05:49:00;11.82;;;6.28;;
49614;SDS011;35517;45.272;9.984;2023-04-03T05:51:34;10.65;;;6.13;;
49614;SDS011;35517;45.272;9.984;2023-04-03T05:54:21;15.00;;;6.38;;
49614;SDS011;35517;45.272;9.984;2023-04-03T05:56:50;12.18;;;5.28;;
49614;SDS011;35517;45.272;9.984;2023-04-03T05:59:19;12.13;;;6.35;;
49614;SDS011;35517;45.272;9.984;2023-04-03T06:01:48;11.60;;;5.70;;
49614;SDS011;35517;45.272;9.984;2023-04-03T06:04:15;13.65;;;6.30;;
49614;SDS011;35517;45.272;9.984;2023-04-03T06:06:52;9.95;;;6.22;;
49614;SDS011;35517;45.272;9.984;2023-04-03T06:09:20;15.90;;;5.82;;
49614;SDS011;35517;45.272;9.984;2023-04-03T06:11:47;22.65;;;6.03;;
49614;SDS011;35517;45.272;9.984;2023-04-03T06:14:14;11.52;;;5.13;;
49614;SDS011;35517;45.272;9.984;2023-04-03T06:16:41;11.88;;;5.60;;
49614;SDS011;35517;45.272;9.984;2023-04-03T06:19:09;11.50;;;6.10;;
49614;SDS011;35517;45.272;9.984;2023-04-03T06:21:39;8.40;;;5.45;;
49614;SDS011;35517;45.272;9.984;2023-04-03T06:24:06;8.25;;;5.00;;
49614;SDS011;35517;45.272;9.984;2023-04-03T06:26:33;8.05;;;5.28;;
49614;SDS011;35517;45.272;9.984;2023-04-03T06:28:59;10.60;;;5.10;;
49614;SDS011;35517;45.272;9.984;2023-04-03T06:31:27;11.70;;;4.75;;
49614;SDS011;35517;45.272;9.984;2023-04-03T06:33:53;9.27;;;4.93;;
49614;SDS011;35517;45.272;9.984;2023-04-03T06:36:20;5.82;;;3.55;;
49614;SDS011;35517;45.272;9.984;2023-04-03T06:38:47;9.57;;;4.65;;
49614;SDS011;35517;45.272;9.984;2023-04-03T06:41:14;8.43;;;4.10;;
49614;SDS011;35517;45.272;9.984;2023-04-03T06:43:42;6.15;;;3.60;;
49614;SDS011;35517;45.272;9.984;2023-04-03T06:46:15;13.15;;;6.38;;
49614;SDS011;35517;45.272;9.984;2023-04-03T06:48:42;13.50;;;5.05;;
49614;SDS011;35517;45.272;9.984;2023-04-03T06:51:19;9.80;;;4.65;;
49614;SDS011;35517;45.272;9.984;2023-04-03T06:53:47;7.20;;;4.50;;
49614;SDS011;35517;45.272;9.984;2023-04-03T06:56:14;7.32;;;3.92;;
49614;SDS011;35517;45.272;9.984;2023-04-03T06:58:43;7.28;;;4.88;;
49614;SDS011;35517;45.272;9.984;2023-04-03T07:01:10;4.82;;;4.15;;
49614;SDS011;35517;45.272;9.984;2023-04-03T07:03:37;6.72;;;4.00;;
49614;SDS011;35517;45.272;9.984;2023-04-03T07:06:04;9.27;;;4.60;;
49614;SDS011;35517;45.272;9.984;2023-04-03T07:08:32;7.10;;;3.53;;
49614;SDS011;35517;45.272;9.984;2023-04-03T07:10:59;6.00;;;3.47;;
49614;SDS011;35517;45.272;9.984;2023-04-03T07:13:26;6.95;;;3.53;;
49614;SDS011;35517;45.272;9.984;2023-04-03T07:15:53;6.68;;;3.42;;
49614;SDS011;35517;45.272;9.984;2023-04-03T07:18:19;19.35;;;4.60;;
49614;SDS011;35517;45.272;9.984;2023-04-03T07:20:47;5.85;;;3.28;;
49614;SDS011;35517;45.272;9.984;2023-04-03T07:23:13;10.43;;;4.15;;
49614;SDS011;35517;45.272;9.984;2023-04-03T07:25:43;6.25;;;3.78;;
49614;SDS011;35517;45.272;9.984;2023-04-03T07:28:10;6.93;;;3.33;;
49614;SDS011;35517;45.272;9.984;2023-04-03T07:30:47;9.43;;;4.05;;
49614;SDS011;35517;45.272;9.984;2023-04-03T07:33:14;6.15;;;3.13;;
49614;SDS011;35517;45.272;9.984;2023-04-03T07:35:41;4.65;;;2.65;;
49614;SDS011;35517;45.272;9.984;2023-04-03T07:38:08;13.43;;;2.70;;
49614;SDS011;35517;45.272;9.984;2023-04-03T07:40:35;7.35;;;3.47;;
49614;SDS011;35517;45.272;9.984;2023-04-03T07:43:02;7.78;;;2.80;;
49614;SDS011;35517;45.272;9.984;2023-04-03T07:45:28;3.83;;;2.90;;
49614;SDS011;35517;45.272;9.984;2023-04-03T07:47:55;5.82;;;2.75;;
49614;SDS011;35517;45.272;9.984;2023-04-03T07:50:22;5.57;;;3.35;;
49614;SDS011;35517;45.272;9.984;2023-04-03T07:52:49;4.10;;;3.03;;
49614;SDS011;35517;45.272;9.984;2023-04-03T07:55:16;3.92;;;2.30;;
49614;SDS011;35517;45.272;9.984;2023-04-03T07:57:43;5.95;;;3.08;;
49614;SDS011;35517;45.272;9.984;2023-04-03T08:00:09;9.45;;;3.17;;
49614;SDS011;35517;45.272;9.984;2023-04-03T08:02:40;3.78;;;2.10;;
49614;SDS011;35517;45.272;9.984;2023-04-03T08:05:07;5.88;;;3.25;;
49614;SDS011;35517;45.272;9.984;2023-04-03T08:07:33;7.43;;;2.33;;
49614;SDS011;35517;45.272;9.984;2023-04-03T08:10:01;6.15;;;2.22;;
49614;SDS011;35517;45.272;9.984;2023-04-03T08:12:28;4.28;;;2.53;;
49614;SDS011;35517;45.272;9.984;2023-04-03T08:14:55;7.40;;;2.58;;
49614;SDS011;35517;45.272;9.984;2023-04-03T08:17:22;5.05;;;2.08;;
49614;SDS011;35517;45.272;9.984;2023-04-03T08:19:48;9.52;;;2.30;;
49614;SDS011;35517;45.272;9.984;2023-04-03T08:22:15;5.40;;;2.20;;
49614;SDS011;35517;45.272;9.984;2023-04-03T08:24:42;5.13;;;1.75;;
49614;SDS011;35517;45.272;9.984;2023-04-03T08:27:08;2.33;;;1.42;;
49614;SDS011;35517;45.272;9.984;2023-04-03T08:29:35;7.43;;;2.10;;
49614;SDS011;35517;45.272;9.984;2023-04-03T08:32:03;5.18;;;1.63;;
49614;SDS011;35517;45.272;9.984;2023-04-03T08:34:30;4.03;;;1.20;;
49614;SDS011;35517;45.272;9.984;2023-04-03T08:37:00;3.67;;;1.40;;
49614;SDS011;35517;45.272;9.984;2023-04-03T08:39:27;3.47;;;0.80;;
49614;SDS011;35517;45.272;9.984;2023-04-03T08:41:55;3.42;;;1.85;;
49614;SDS011;35517;45.272;9.984;2023-04-03T08:49:40;2.00;;;0.90;;
49614;SDS011;35517;45.272;9.984;2023-04-03T08:52:31;13.63;;;0.93;;
49614;SDS011;35517;45.272;9.984;2023-04-03T08:55:00;6.18;;;0.80;;
49614;SDS011;35517;45.272;9.984;2023-04-03T08:57:29;2.45;;;1.08;;
49614;SDS011;35517;45.272;9.984;2023-04-03T08:59:57;3.20;;;0.75;;
49614;SDS011;35517;45.272;9.984;2023-04-03T09:02:33;3.88;;;0.60;;
49614;SDS011;35517;45.272;9.984;2023-04-03T09:05:01;2.47;;;0.40;;
49614;SDS011;35517;45.272;9.984;2023-04-03T09:07:47;3.65;;;0.55;;
49614;SDS011;35517;45.272;9.984;2023-04-03T09:10:18;0.73;;;0.50;;
49614;SDS011;35517;45.272;9.984;2023-04-03T09:12:48;1.73;;;0.60;;
49614;SDS011;35517;45.272;9.984;2023-04-03T09:15:21;1.58;;;0.80;;
49614;SDS011;35517;45.272;9.984;2023-04-03T09:18:05;1.45;;;0.80;;
49614;SDS011;35517;45.272;9.984;2023-04-03T09:23:30;1.73;;;0.70;;
49614;SDS011;35517;45.272;9.984;2023-04-03T09:26:03;2.83;;;0.75;;
49614;SDS011;35517;45.272;9.984;2023-04-03T09:30:56;0.50;;;0.40;;
49614;SDS011;35517;45.272;9.984;2023-04-03T09:33:23;2.20;;;0.70;;
49614;SDS011;35517;45.272;9.984;2023-04-03T09:35:49;4.72;;;0.50;;
49614;SDS011;35517;45.272;9.984;2023-04-03T09:38:17;0.90;;;0.60;;
49614;SDS011;35517;45.272;9.984;2023-04-03T09:40:45;2.72;;;0.70;;
49614;SDS011;35517;45.272;9.984;2023-04-03T09:45:50;3.90;;;0.90;;
49614;SDS011;35517;45.272;9.984;2023-04-03T09:48:20;1.30;;;0.65;;
49614;SDS011;35517;45.272;9.984;2023-04-03T09:53:40;1.45;;;0.63;;
49614;SDS011;35517;45.272;9.984;2023-04-03T09:58:42;3.15;;;0.57;;
49614;SDS011;35517;45.272;9.984;2023-04-03T10:01:26;1.63;;;0.73;;
49614;SDS011;35517;45.272;9.984;2023-04-03T10:06:56;1.10;;;0.38;;
49614;SDS011;35517;45.272;9.984;2023-04-03T10:09:23;2.40;;;0.75;;
49614;SDS011;35517;45.272;9.984;2023-04-03T10:11:58;3.42;;;0.38;;
49614;SDS011;35517;45.272;9.984;2023-04-03T10:14:25;4.22;;;0.60;;
49614;SDS011;35517;45.272;9.984;2023-04-03T10:16:54;1.27;;;0.60;;
49614;SDS011;35517;45.272;9.984;2023-04-03T10:28:03;2.53;;;0.70;;
49614;SDS011;35517;45.272;9.984;2023-04-03T10:29:59;1.88;;;0.80;;
49614;SDS011;35517;45.272;9.984;2023-04-03T10:55:46;2.90;;;0.80;;
49614;SDS011;35517;45.272;9.984;2023-04-03T10:58:18;1.77;;;0.80;;
49614;SDS011;35517;45.272;9.984;2023-04-03T11:00:47;3.30;;;0.80;;
49614;SDS011;35517;45.272;9.984;2023-04-03T11:03:16;2.10;;;0.63;;
49614;SDS011;35517;45.272;9.984;2023-04-03T11:05:48;2.08;;;0.85;;
49614;SDS011;35517;45.272;9.984;2023-04-03T11:08:30;1.67;;;0.73;;
49614;SDS011;35517;45.272;9.984;2023-04-03T11:11:09;2.10;;;0.95;;
49614;SDS011;35517;45.272;9.984;2023-04-03T11:13:46;3.28;;;0.60;;
49614;SDS011;35517;45.272;9.984;2023-04-03T11:16:15;1.08;;;0.50;;
49614;SDS011;35517;45.272;9.984;2023-04-03T11:19:08;4.38;;;0.63;;
49614;SDS011;35517;45.272;9.984;2023-04-03T11:21:45;2.13;;;0.55;;
49614;SDS011;35517;45.272;9.984;2023-04-03T11:24:16;1.30;;;0.50;;
49614;SDS011;35517;45.272;9.984;2023-04-03T11:26:43;1.67;;;0.63;;
49614;SDS011;35517;45.272;9.984;2023-04-03T11:29:14;1.02;;;0.93;;
49614;SDS011;35517;45.272;9.984;2023-04-03T11:34:37;1.92;;;0.65;;
49614;SDS011;35517;45.272;9.984;2023-04-03T11:37:51;2.95;;;0.50;;
49614;SDS011;35517;45.272;9.984;2023-04-03T11:39:54;1.83;;;0.50;;
49614;SDS011;35517;45.272;9.984;2023-04-03T11:47:44;5.25;;;0.60;;
49614;SDS011;35517;45.272;9.984;2023-04-03T11:52:57;1.27;;;0.65;;
49614;SDS011;35517;45.272;9.984;2023-04-03T12:16:04;5.00;;;0.60;;
49614;SDS011;35517;45.272;9.984;2023-04-03T12:18:40;5.57;;;0.85;;
49614;SDS011;35517;45.272;9.984;2023-04-03T12:21:08;3.17;;;0.60;;
49614;SDS011;35517;45.272;9.984;2023-04-03T12:23:36;3.22;;;0.88;;
49614;SDS011;35517;45.272;9.984;2023-04-03T12:26:22;1.23;;;0.50;;
49614;SDS011;35517;45.272;9.984;2023-04-03T12:28:51;1.90;;;0.75;;
49614;SDS011;35517;45.272;9.984;2023-04-03T12:31:19;5.90;;;0.90;;
49614;SDS011;35517;45.272;9.984;2023-04-03T12:33:51;2.10;;;0.70;;
49614;SDS011;35517;45.272;9.984;2023-04-03T12:36:26;1.30;;;0.82;;
49614;SDS011;35517;45.272;9.984;2023-04-03T12:39:04;2.10;;;0.80;;
49614;SDS011;35517;45.272;9.984;2023-04-03T12:44:43;3.22;;;1.17;;
49614;SDS011;35517;45.272;9.984;2023-04-03T12:50:23;2.55;;;1.08;;
49614;SDS011;35517;45.272;9.984;2023-04-03T12:52:52;5.75;;;1.35;;
49614;SDS011;35517;45.272;9.984;2023-04-03T12:55:20;4.97;;;1.40;;
49614;SDS011;35517;45.272;9.984;2023-04-03T12:57:47;5.28;;;0.90;;
49614;SDS011;35517;45.272;9.984;2023-04-03T13:02:54;5.00;;;1.42;;
49614;SDS011;35517;45.272;9.984;2023-04-03T13:05:21;5.05;;;1.23;;
49614;SDS011;35517;45.272;9.984;2023-04-03T13:07:48;2.03;;;1.13;;
49614;SDS011;35517;45.272;9.984;2023-04-03T13:10:16;4.22;;;1.00;;
49614;SDS011;35517;45.272;9.984;2023-04-03T13:12:48;4.07;;;1.23;;
49614;SDS011;35517;45.272;9.984;2023-04-03T13:15:16;4.30;;;0.90;;
49614;SDS011;35517;45.272;9.984;2023-04-03T13:17:43;4.20;;;0.88;;
49614;SDS011;35517;45.272;9.984;2023-04-03T13:20:15;5.38;;;1.67;;
49614;SDS011;35517;45.272;9.984;2023-04-03T13:22:49;4.93;;;0.90;;
49614;SDS011;35517;45.272;9.984;2023-04-03T13:25:16;3.38;;;1.00;;
49614;SDS011;35517;45.272;9.984;2023-04-03T13:27:44;1.95;;;0.75;;
49614;SDS011;35517;45.272;9.984;2023-04-03T13:30:21;1.85;;;1.08;;
49614;SDS011;35517;45.272;9.984;2023-04-03T13:32:49;4.15;;;1.00;;
49614;SDS011;35517;45.272;9.984;2023-04-03T13:38:00;0.88;;;0.63;;
49614;SDS011;35517;45.272;9.984;2023-04-03T13:40:27;2.83;;;1.10;;
49614;SDS011;35517;45.272;9.984;2023-04-03T13:43:05;4.70;;;0.85;;
49614;SDS011;35517;45.272;9.984;2023-04-03T13:45:33;4.93;;;1.67;;
49614;SDS011;35517;45.272;9.984;2023-04-03T13:48:07;5.18;;;1.20;;
49614;SDS011;35517;45.272;9.984;2023-04-03T13:50:41;4.18;;;1.20;;
49614;SDS011;35517;45.272;9.984;2023-04-03T13:53:16;3.10;;;1.02;;
49614;SDS011;35517;45.272;9.984;2023-04-03T13:55:56;9.57;;;1.10;;
49614;SDS011;35517;45.272;9.984;2023-04-03T13:58:24;6.22;;;1.60;;
49614;SDS011;35517;45.272;9.984;2023-04-03T14:00:55;4.25;;;1.15;;
49614;SDS011;35517;45.272;9.984;2023-04-03T14:03:36;3.13;;;1.08;;
49614;SDS011;35517;45.272;9.984;2023-04-03T14:06:08;7.57;;;2.05;;
49614;SDS011;35517;45.272;9.984;2023-04-03T14:08:35;4.35;;;1.00;;
49614;SDS011;35517;45.272;9.984;2023-04-03T14:11:01;12.00;;;1.60;;
49614;SDS011;35517;45.272;9.984;2023-04-03T14:13:31;3.20;;;1.00;;
49614;SDS011;35517;45.272;9.984;2023-04-03T14:15:58;4.45;;;1.42;;
49614;SDS011;35517;45.272;9.984;2023-04-03T14:18:25;4.97;;;1.30;;
49614;SDS011;35517;45.272;9.984;2023-04-03T14:20:52;2.03;;;1.20;;
49614;SDS011;35517;45.272;9.984;2023-04-03T14:23:19;8.20;;;1.20;;
49614;SDS011;35517;45.272;9.984;2023-04-03T14:25:45;9.10;;;1.73;;
49614;SDS011;35517;45.272;9.984;2023-04-03T14:28:17;5.45;;;1.55;;
49614;SDS011;35517;45.272;9.984;2023-04-03T14:30:44;12.18;;;1.35;;
49614;SDS011;35517;45.272;9.984;2023-04-03T14:33:15;3.78;;;1.25;;
49614;SDS011;35517;45.272;9.984;2023-04-03T14:35:42;7.53;;;1.60;;
49614;SDS011;35517;45.272;9.984;2023-04-03T14:38:25;2.88;;;1.00;;
49614;SDS011;35517;45.272;9.984;2023-04-03T14:40:52;6.55;;;1.25;;
49614;SDS011;35517;45.272;9.984;2023-04-03T14:43:19;5.75;;;1.13;;
49614;SDS011;35517;45.272;9.984;2023-04-03T14:45:47;2.80;;;1.35;;
49614;SDS011;35517;45.272;9.984;2023-04-03T14:48:24;4.53;;;1.08;;
49614;SDS011;35517;45.272;9.984;2023-04-03T14:50:51;7.55;;;1.15;;
49614;SDS011;35517;45.272;9.984;2023-04-03T14:53:18;4.40;;;0.98;;
49614;SDS011;35517;45.272;9.984;2023-04-03T14:55:48;8.25;;;1.70;;
49614;SDS011;35517;45.272;9.984;2023-04-03T14:58:15;9.18;;;1.80;;
49614;SDS011;35517;45.272;9.984;2023-04-03T15:00:42;2.53;;;1.00;;
49614;SDS011;35517;45.272;9.984;2023-04-03T15:03:16;7.75;;;1.50;;
49614;SDS011;35517;45.272;9.984;2023-04-03T15:05:43;8.77;;;1.45;;
49614;SDS011;35517;45.272;9.984;2023-04-03T15:08:21;13.60;;;1.42;;
49614;SDS011;35517;45.272;9.984;2023-04-03T15:10:49;4.80;;;1.23;;
49614;SDS011;35517;45.272;9.984;2023-04-03T15:13:18;4.18;;;1.70;;
49614;SDS011;35517;45.272;9.984;2023-04-03T15:15:45;1.88;;;1.00;;
49614;SDS011;35517;45.272;9.984;2023-04-03T15:18:32;9.95;;;1.40;;
49614;SDS011;35517;45.272;9.984;2023-04-03T15:21:00;3.10;;;0.88;;
49614;SDS011;35517;45.272;9.984;2023-04-03T15:23:27;4.45;;;1.40;;
49614;SDS011;35517;45.272;9.984;2023-04-03T15:25:55;3.55;;;1.50;;
49614;SDS011;35517;45.272;9.984;2023-04-03T15:28:23;2.33;;;1.33;;
49614;SDS011;35517;45.272;9.984;2023-04-03T15:30:51;12.75;;;1.70;;
49614;SDS011;35517;45.272;9.984;2023-04-03T15:33:17;4.10;;;1.10;;
49614;SDS011;35517;45.272;9.984;2023-04-03T15:35:44;5.20;;;1.30;;
49614;SDS011;35517;45.272;9.984;2023-04-03T15:38:11;3.90;;;1.30;;
49614;SDS011;35517;45.272;9.984;2023-04-03T15:40:38;5.85;;;1.10;;
49614;SDS011;35517;45.272;9.984;2023-04-03T15:43:05;7.70;;;1.20;;
49614;SDS011;35517;45.272;9.984;2023-04-03T15:45:31;3.35;;;1.17;;
49614;SDS011;35517;45.272;9.984;2023-04-03T15:47:59;4.47;;;1.23;;
49614;SDS011;35517;45.272;9.984;2023-04-03T15:50:26;7.68;;;1.45;;
49614;SDS011;35517;45.272;9.984;2023-04-03T15:52:53;2.97;;;1.40;;
49614;SDS011;35517;45.272;9.984;2023-04-03T15:55:21;4.07;;;1.45;;
49614;SDS011;35517;45.272;9.984;2023-04-03T15:57:48;4.75;;;0.90;;
49614;SDS011;35517;45.272;9.984;2023-04-03T16:00:14;12.95;;;2.08;;
49614;SDS011;35517;45.272;9.984;2023-04-03T16:02:41;3.90;;;1.30;;
49614;SDS011;35517;45.272;9.984;2023-04-03T16:05:08;4.93;;;1.20;;
49614;SDS011;35517;45.272;9.984;2023-04-03T16:07:36;3.35;;;1.00;;
49614;SDS011;35517;45.272;9.984;2023-04-03T16:10:03;5.43;;;1.20;;
49614;SDS011;35517;45.272;9.984;2023-04-03T16:12:30;3.72;;;0.85;;
49614;SDS011;35517;45.272;9.984;2023-04-03T16:14:56;6.95;;;1.00;;
49614;SDS011;35517;45.272;9.984;2023-04-03T16:17:23;1.75;;;0.80;;
49614;SDS011;35517;45.272;9.984;2023-04-03T16:19:50;6.30;;;1.58;;
49614;SDS011;35517;45.272;9.984;2023-04-03T16:22:16;5.72;;;1.17;;
49614;SDS011;35517;45.272;9.984;2023-04-03T16:24:43;4.85;;;1.30;;
49614;SDS011;35517;45.272;9.984;2023-04-03T16:27:09;11.48;;;1.40;;
49614;SDS011;35517;45.272;9.984;2023-04-03T16:29:36;6.82;;;1.40;;
49614;SDS011;35517;45.272;9.984;2023-04-03T16:32:02;2.90;;;1.00;;
49614;SDS011;35517;45.272;9.984;2023-04-03T16:34:29;5.47;;;0.98;;
49614;SDS011;35517;45.272;9.984;2023-04-03T16:36:57;3.78;;;1.30;;
49614;SDS011;35517;45.272;9.984;2023-04-03T16:39:24;2.05;;;1.02;;